Pagrindinis puslapis
METAR-TAF:

METAR-TAF

Oro uostai :

Base Presidente Eduardo Frei Montalva, Čilė

platuma: 62-11-28S, ilguma: 58-59-11W, Aukštis: 45 m

Dabartinis oras

Ataskaita buvo paskelbta 2 valandos ir 22 minutes, ne 00:00 UTC
Vėjas 22 kt iš Šiaurės Vakarų
Temperatūra -1°C
Drėgmė 100%
Slėgis 973 hPa
Matomumas: 2500 m
Apsiniaukę ne aukštis 400 ft
sniegas

METAR: SCRM 240000Z 32022KT 2500 -SHSN OVC004 M01/M01 Q0973

Laikas: 23:22 (02:22 UTC)


TAF: trūkstamas

Orai ataskaitas ir orų prognozės (METAR, TAF).

turimą stotys yra geltonos ir raudonos taškus žemėlapyje.

Perkelti pele per norėdami pamatyti stoties vardą.

Tada spustelėkite, norėdami matyti oro stebėjimo ir prognozės.

Norėdami pakeisti žemėlapį: spustelėkite ant žalios mygtukų su juodo kryžiaus žemyn,; žalią mygtuką su brūkšneliu, jei norite nutolinti; arba žalių rodyklių gretimoms žemėlapius.


METAR-TAF: